Time;durP1;ratioP1;P1;durP2;ratioP2;P2;SDS_P1;SDS_P2;PMS_P1;PMS_P2;Temp;Humidity;BMP_temperature;BMP_pressure;BME280_temperature;BME280_humidity;BME280_pressure;Samples;Min_cycle;Max_cycle;Signal;HPM_P1;HPM_P2
2023/10/24 00:00:56;;;;;;;2.25;1.40;;;;;;;10.74;100.00;97146.78;1224527;75;2914252;-74
2023/10/24 00:03:31;;;;;;;2.70;1.70;;;;;;;10.77;100.00;97147.78;1210601;75;3933589;-75
2023/10/24 00:06:04;;;;;;;2.15;1.30;;;;;;;11.01;100.00;97156.38;1224006;75;2919533;-75
2023/10/24 00:08:36;;;;;;;1.30;1.10;;;;;;;11.09;100.00;97157.44;1212709;75;3816845;-75
2023/10/24 00:11:10;;;;;;;2.30;1.90;;;;;;;10.59;100.00;97165.38;1223374;75;2920134;-74
2023/10/24 00:13:42;;;;;;;2.10;1.80;;;;;;;10.74;100.00;97165.19;1219028;75;3076698;-75
2023/10/24 00:16:15;;;;;;;2.40;1.70;;;;;;;10.83;100.00;97167.75;1222099;75;3065855;-77
2023/10/24 00:18:50;;;;;;;3.40;1.55;;;;;;;10.67;100.00;97171.88;1225685;75;2918890;-72
2023/10/24 00:21:23;;;;;;;3.25;1.60;;;;;;;10.80;100.00;97161.25;1224318;75;2925750;-73
2023/10/24 00:23:56;;;;;;;2.20;1.20;;;;;;;11.01;100.00;97161.84;1225098;75;2903238;-74
2023/10/24 00:26:28;;;;;;;2.20;1.25;;;;;;;10.94;100.00;97173.28;1213489;75;3834670;-74
2023/10/24 00:29:01;;;;;;;1.25;1.05;;;;;;;10.80;100.00;97160.50;1224111;75;2917082;-75
2023/10/24 00:31:33;;;;;;;1.55;1.00;;;;;;;10.99;100.00;97161.63;1220025;75;3117722;-72
2023/10/24 00:34:12;;;;;;;1.80;1.25;;;;;;;10.74;100.00;97154.25;1219376;75;3095614;-76
2023/10/24 00:36:45;;;;;;;2.00;1.40;;;;;;;10.86;100.00;97153.06;1224131;75;2921362;-74
2023/10/24 00:39:18;;;;;;;4.00;1.50;;;;;;;10.51;100.00;97147.88;1224652;75;2921420;-76
2023/10/24 00:41:50;;;;;;;2.40;1.45;;;;;;;10.60;100.00;97151.16;1224627;75;2925962;-75
2023/10/24 00:44:23;;;;;;;2.05;1.40;;;;;;;10.82;100.00;97147.84;1224933;75;2921148;-73
2023/10/24 00:46:57;;;;;;;1.85;1.35;;;;;;;10.73;100.00;97136.34;1220623;75;3057972;-73
2023/10/24 00:49:32;;;;;;;1.90;1.60;;;;;;;10.74;100.00;97140.56;1224439;75;2926804;-77
2023/10/24 00:52:06;;;;;;;7.25;1.90;;;;;;;10.35;100.00;97136.34;1211070;75;3969528;-74
2023/10/24 00:54:39;;;;;;;3.00;1.55;;;;;;;10.56;100.00;97128.00;1224854;75;2922990;-74
2023/10/24 00:57:12;;;;;;;2.65;1.60;;;;;;;10.59;100.00;97121.56;1224798;75;2931326;-73
2023/10/24 00:59:46;;;;;;;2.60;1.70;;;;;;;10.54;100.00;97123.03;1221985;75;3043974;-74
2023/10/24 01:02:20;;;;;;;1.85;1.50;;;;;;;10.50;100.00;97132.69;1224362;75;2920309;-73
2023/10/24 01:05:02;;;;;;;3.15;1.35;;;;;;;10.65;100.00;97136.03;1224958;75;2929550;-75
2023/10/24 01:07:36;;;;;;;2.80;1.20;;;;;;;10.54;100.00;97138.72;1219468;75;3052913;-75
2023/10/24 01:10:11;;;;;;;3.50;2.15;;;;;;;10.23;100.00;97134.72;1224451;75;2920582;-74
2023/10/24 01:12:43;;;;;;;3.60;2.30;;;;;;;10.07;100.00;97118.94;1224574;75;2916714;-76
2023/10/24 01:15:16;;;;;;;5.35;2.45;;;;;;;10.29;100.00;97116.38;1224651;75;2925152;-72
2023/10/24 01:17:53;;;;;;;4.40;2.00;;;;;;;10.20;100.00;97108.34;1224396;75;2928806;-75
2023/10/24 01:20:28;;;;;;;3.10;1.95;;;;;;;10.43;100.00;97107.28;1224157;75;2916417;-75
2023/10/24 01:23:04;;;;;;;4.60;2.70;;;;;;;10.21;100.00;97098.91;1225107;75;2924074;-75
2023/10/24 01:25:41;;;;;;;3.25;2.30;;;;;;;10.43;100.00;97106.53;1223756;75;2924664;-76
2023/10/24 01:28:14;;;;;;;3.60;2.65;;;;;;;10.12;100.00;97091.63;1222939;75;2913555;-72
2023/10/24 01:30:46;;;;;;;3.20;2.15;;;;;;;10.33;100.00;97103.25;1224060;75;2923432;-73
2023/10/24 01:33:19;;;;;;;4.00;2.20;;;;;;;10.13;100.00;97101.34;1224959;75;2920207;-74
2023/10/24 01:35:52;;;;;;;2.90;1.75;;;;;;;10.28;100.00;97114.13;1225195;75;2920762;-76
2023/10/24 01:38:27;;;;;;;5.30;2.80;;;;;;;10.07;100.00;97099.78;1224314;75;2922856;-70
2023/10/24 01:41:00;;;;;;;4.40;2.50;;;;;;;10.28;100.00;97105.91;1223346;75;2927525;-76
2023/10/24 01:43:32;;;;;;;3.35;2.35;;;;;;;10.39;100.00;97111.47;1224783;75;2923268;-74
2023/10/24 01:46:05;;;;;;;3.75;2.10;;;;;;;10.18;100.00;97088.94;1224438;75;2922450;-74
2023/10/24 01:48:37;;;;;;;2.80;2.10;;;;;;;10.33;100.00;97110.69;1220890;75;3099195;-76
2023/10/24 01:51:10;;;;;;;2.85;1.70;;;;;;;10.43;100.00;97104.53;1208329;75;4086059;-73
2023/10/24 01:53:45;;;;;;;4.25;2.30;;;;;;;10.22;100.00;97095.69;1223784;75;2930430;-71
2023/10/24 01:56:18;;;;;;;3.25;2.20;;;;;;;10.36;100.00;97093.31;1223647;75;2923856;-73
2023/10/24 01:58:51;;;;;;;4.00;2.35;;;;;;;10.04;100.00;97093.31;1224041;75;2927107;-73
2023/10/24 02:01:23;;;;;;;3.15;2.30;;;;;;;9.93;100.00;97093.97;1224264;75;2925235;-72
2023/10/24 02:03:58;;;;;;;4.00;2.75;;;;;;;10.03;100.00;97087.09;1221996;75;3034888;-74
2023/10/24 02:06:31;;;;;;;3.60;2.90;;;;;;;10.31;100.00;97094.03;1206750;75;3991885;-77
2023/10/24 02:09:07;;;;;;;4.35;2.35;;;;;;;10.22;100.00;97087.47;1210616;75;4021575;-76
2023/10/24 02:11:39;;;;;;;3.40;2.20;;;;;;;10.33;100.00;97097.03;1224727;75;2923950;-74
2023/10/24 02:14:12;;;;;;;4.90;3.15;;;;;;;9.96;100.00;97082.06;1225403;75;2923874;-73
2023/10/24 02:16:45;;;;;;;3.65;2.80;;;;;;;10.13;100.00;97109.53;1220249;75;3047144;-73
2023/10/24 02:19:17;;;;;;;4.85;3.05;;;;;;;9.93;100.00;97088.50;1224544;75;2918438;-73
2023/10/24 02:21:50;;;;;;;2.60;2.00;;;;;;;10.21;100.00;97085.22;1220803;75;2957393;-73
2023/10/24 02:24:25;;;;;;;3.10;2.00;;;;;;;10.19;100.00;97082.97;1225567;75;2916935;-76
2023/10/24 02:26:58;;;;;;;4.20;2.05;;;;;;;10.09;100.00;97091.84;1225209;75;2922612;-74
2023/10/24 02:29:31;;;;;;;2.60;1.90;;;;;;;9.82;100.00;97097.34;1224311;75;2927323;-76
2023/10/24 02:32:03;;;;;;;2.65;1.55;;;;;;;9.88;100.00;97097.41;1222163;75;2953579;-73
2023/10/24 02:34:36;;;;;;;4.00;2.20;;;;;;;9.81;100.00;97093.13;1224612;75;2917484;-74
2023/10/24 02:37:09;;;;;;;3.35;1.90;;;;;;;9.62;100.00;97077.53;1224875;75;2924996;-73
2023/10/24 02:39:44;;;;;;;6.10;2.05;;;;;;;9.59;100.00;97087.44;1224694;75;2921027;-73
2023/10/24 02:42:17;;;;;;;3.10;2.00;;;;;;;9.74;100.00;97117.41;1221363;75;3099921;-75
2023/10/24 02:44:52;;;;;;;3.45;1.55;;;;;;;10.07;100.00;97106.00;1220957;75;3094271;-74
2023/10/24 02:47:25;;;;;;;4.85;2.20;;;;;;;9.89;100.00;97107.13;1224575;75;2914268;-73
2023/10/24 02:49:58;;;;;;;4.60;2.80;;;;;;;9.69;100.00;97104.44;1224900;75;2919965;-72
2023/10/24 02:52:31;;;;;;;3.00;2.10;;;;;;;9.90;100.00;97105.13;1224217;75;2922533;-75
2023/10/24 02:55:06;;;;;;;4.65;2.40;;;;;;;9.43;100.00;97101.69;1224931;75;2928181;-74
2023/10/24 02:57:39;;;;;;;3.40;2.55;;;;;;;9.52;100.00;97091.34;1223820;75;2925437;-75
2023/10/24 03:00:14;;;;;;;4.80;2.80;;;;;;;9.53;100.00;97106.53;1222641;75;2934466;-73
2023/10/24 03:02:46;;;;;;;3.15;2.40;;;;;;;9.58;100.00;97105.84;1225564;75;2918519;-74
2023/10/24 03:05:19;;;;;;;2.85;2.15;;;;;;;9.79;100.00;97103.81;1224754;75;2917745;-73
2023/10/24 03:07:52;;;;;;;4.25;2.30;;;;;;;9.77;100.00;97105.53;1222235;75;2987931;-76
2023/10/24 03:10:27;;;;;;;3.45;2.25;;;;;;;9.80;100.00;97110.75;1222844;75;2936467;-74
2023/10/24 03:13:02;;;;;;;6.00;3.00;;;;;;;9.65;100.00;97096.47;1224284;75;2923983;-74
2023/10/24 03:15:36;;;;;;;2.70;2.10;;;;;;;9.90;100.00;97091.44;1224947;75;2921748;-76
2023/10/24 03:18:09;;;;;;;2.65;1.85;;;;;;;9.83;100.00;97098.09;1224337;75;2925704;-73
2023/10/24 03:20:43;;;;;;;2.85;2.00;;;;;;;9.41;100.00;97093.25;1224178;75;2924340;-75
2023/10/24 03:23:16;;;;;;;2.10;1.60;;;;;;;9.69;100.00;97098.97;1225248;75;2921116;-73
2023/10/24 03:25:51;;;;;;;2.00;1.45;;;;;;;9.99;100.00;97086.56;1221550;75;2989736;-73
2023/10/24 03:28:24;;;;;;;1.80;1.20;;;;;;;10.10;100.00;97096.84;1224933;75;2919705;-72
2023/10/24 03:31:05;;;;;;;1.95;1.50;;;;;;;10.05;100.00;97088.59;1224229;75;2921565;-74
2023/10/24 03:33:38;;;;;;;2.25;1.75;;;;;;;9.92;100.00;97089.00;1224855;75;2924411;-73
2023/10/24 03:36:15;;;;;;;1.70;1.45;;;;;;;10.10;100.00;97099.59;1208904;75;4070342;-73
2023/10/24 03:38:48;;;;;;;2.50;1.70;;;;;;;9.86;100.00;97079.97;1224644;75;2922146;-73
2023/10/24 03:41:23;;;;;;;1.90;1.35;;;;;;;10.02;100.00;97074.63;1223988;75;2928832;-72
2023/10/24 03:43:56;;;;;;;1.50;1.30;;;;;;;10.13;100.00;97086.91;1225033;75;2926164;-72
2023/10/24 03:46:29;;;;;;;4.55;2.00;;;;;;;9.46;100.00;97079.63;1222833;75;2932098;-74
2023/10/24 03:49:02;;;;;;;3.75;1.95;;;;;;;9.86;100.00;97086.22;1223107;75;2964125;-73
2023/10/24 03:51:34;;;;;;;2.45;2.05;;;;;;;9.79;100.00;97078.47;1223922;75;2919691;-72
2023/10/24 03:54:08;;;;;;;2.90;1.90;;;;;;;9.91;100.00;97082.00;1224394;75;2918854;-75
2023/10/24 03:56:44;;;;;;;2.95;2.30;;;;;;;9.99;100.00;97081.09;1222599;75;2946289;-75
2023/10/24 03:59:16;;;;;;;4.65;2.60;;;;;;;9.70;100.00;97082.09;1224738;75;2921965;-76
2023/10/24 04:01:49;;;;;;;3.10;2.00;;;;;;;9.78;100.00;97074.22;1223579;75;2910066;-74
2023/10/24 04:04:21;;;;;;;5.70;3.50;;;;;;;9.72;100.00;97084.34;1218692;75;3089544;-76
2023/10/24 04:06:54;;;;;;;9.00;7.85;;;;;;;9.85;100.00;97090.16;1221877;75;3016978;-75
2023/10/24 04:09:27;;;;;;;6.70;4.45;;;;;;;10.01;100.00;97075.88;1224173;75;2924014;-77
2023/10/24 04:12:02;;;;;;;6.35;4.50;;;;;;;10.18;100.00;97072.53;1223223;75;2929300;-75
2023/10/24 04:14:35;;;;;;;7.55;5.20;;;;;;;9.99;100.00;97077.59;1223475;75;2919598;-76
2023/10/24 04:17:08;;;;;;;4.65;3.25;;;;;;;9.96;100.00;97092.25;1223530;75;2921122;-74
2023/10/24 04:19:41;;;;;;;10.10;6.55;;;;;;;9.82;100.00;97072.00;1221208;75;2995701;-75
2023/10/24 04:22:13;;;;;;;6.00;4.10;;;;;;;10.00;100.00;97073.63;1224378;75;2922655;-73
2023/10/24 04:24:46;;;;;;;6.80;5.85;;;;;;;10.10;100.00;97069.50;1224432;75;2919619;-75
2023/10/24 04:27:22;;;;;;;7.60;5.00;;;;;;;10.08;100.00;97069.22;1220942;75;3076027;-74
2023/10/24 04:29:54;;;;;;;3.95;3.25;;;;;;;10.26;100.00;97070.09;1223374;75;2914933;-74
2023/10/24 04:32:27;;;;;;;3.25;2.80;;;;;;;10.35;100.00;97065.19;1221915;75;2943826;-74
2023/10/24 04:35:00;;;;;;;5.50;2.90;;;;;;;10.26;100.00;97076.31;1223939;75;2926485;-75
2023/10/24 04:37:32;;;;;;;4.80;2.40;;;;;;;10.17;100.00;97068.28;1223552;75;2932722;-72
2023/10/24 04:40:07;;;;;;;5.95;3.25;;;;;;;9.77;100.00;97056.31;1223563;75;2936092;-70
2023/10/24 04:42:42;;;;;;;3.75;2.60;;;;;;;10.23;100.00;97047.94;1223908;75;2928515;-76
2023/10/24 04:45:15;;;;;;;13.15;7.55;;;;;;;9.88;100.00;97047.44;1221771;75;2920300;-74
2023/10/24 04:47:48;;;;;;;17.25;8.45;;;;;;;9.75;100.00;97039.66;1222000;75;2947949;-74
2023/10/24 04:50:20;;;;;;;9.65;6.00;;;;;;;9.90;100.00;97045.72;1222665;75;2931274;-73
2023/10/24 04:52:54;;;;;;;6.45;3.65;;;;;;;10.20;100.00;97042.72;1223083;75;2930246;-71
2023/10/24 04:55:27;;;;;;;7.25;3.90;;;;;;;10.26;100.00;97057.16;1224250;75;2930559;-74
2023/10/24 04:58:04;;;;;;;7.55;3.75;;;;;;;10.09;100.00;97048.84;1221559;75;2992109;-74
2023/10/24 05:00:37;;;;;;;7.55;3.80;;;;;;;10.37;100.00;97051.03;1223809;75;2919434;-73
2023/10/24 05:03:10;;;;;;;12.80;4.40;;;;;;;10.54;100.00;97042.91;1224132;75;2921892;-75
2023/10/24 05:05:42;;;;;;;10.45;3.85;;;;;;;10.76;100.00;97034.78;1224711;75;2930271;-73
2023/10/24 05:08:15;;;;;;;5.65;3.05;;;;;;;10.73;100.00;97048.72;1224133;75;2921461;-77
2023/10/24 05:10:49;;;;;;;5.10;3.50;;;;;;;10.48;100.00;97047.59;1223535;75;2926250;-72
2023/10/24 05:13:25;;;;;;;6.15;3.70;;;;;;;10.88;100.00;97027.38;1224652;75;2926417;-74
2023/10/24 05:15:57;;;;;;;7.45;3.55;;;;;;;10.83;100.00;97030.84;1224983;75;2928874;-74
2023/10/24 05:18:30;;;;;;;6.25;2.90;;;;;;;10.94;100.00;97049.28;1223294;75;2923602;-73
2023/10/24 05:21:02;;;;;;;7.75;3.35;;;;;;;10.97;100.00;97046.34;1208429;75;4010686;-72
2023/10/24 05:23:35;;;;;;;5.45;2.85;;;;;;;11.06;100.00;97045.34;1221550;75;2985010;-74
2023/10/24 05:26:09;;;;;;;7.55;4.30;;;;;;;11.12;100.00;97017.97;1222631;75;3005439;-73
2023/10/24 05:28:44;;;;;;;8.70;4.05;;;;;;;11.19;100.00;97017.50;1223522;75;2934468;-73
2023/10/24 05:31:16;;;;;;;9.70;4.20;;;;;;;11.27;100.00;97015.75;1224108;75;2922520;-72
2023/10/24 05:33:49;;;;;;;5.45;3.10;;;;;;;11.40;100.00;97015.28;1222049;75;2966754;-75
2023/10/24 05:36:22;;;;;;;7.80;2.95;;;;;;;11.51;100.00;97015.28;1223017;75;2923106;-74
2023/10/24 05:38:55;;;;;;;4.00;2.55;;;;;;;11.53;100.00;97012.81;1224261;75;2926001;-76
2023/10/24 05:41:28;;;;;;;5.30;2.95;;;;;;;11.49;100.00;97012.28;1221837;75;3068987;-74
2023/10/24 05:44:03;;;;;;;4.75;2.50;;;;;;;11.62;100.00;97009.81;1223739;75;2922298;-72
2023/10/24 05:46:36;;;;;;;3.30;2.15;;;;;;;11.56;100.00;97011.81;1224280;75;2924197;-74
2023/10/24 05:49:08;;;;;;;4.10;2.05;;;;;;;11.65;100.00;97022.53;1221585;75;3011295;-75
2023/10/24 05:51:41;;;;;;;3.15;2.30;;;;;;;11.59;100.00;97016.28;1222428;75;2954312;-75
2023/10/24 05:54:14;;;;;;;3.65;2.10;;;;;;;11.64;100.00;97007.34;1223256;75;2929858;-74
2023/10/24 05:56:46;;;;;;;4.15;2.55;;;;;;;11.52;100.00;97006.59;1224568;75;2927159;-75
2023/10/24 05:59:21;;;;;;;5.75;2.35;;;;;;;11.55;100.00;97004.84;1224133;75;2922528;-74
2023/10/24 06:01:54;;;;;;;4.20;2.00;;;;;;;11.59;100.00;97015.53;1223414;75;2925482;-72
2023/10/24 06:04:34;;;;;;;3.90;1.85;;;;;;;11.66;100.00;97010.31;1223720;75;2930837;-75
2023/10/24 06:07:07;;;;;;;1.90;1.50;;;;;;;11.75;100.00;97025.03;1213002;75;3798955;-76
2023/10/24 06:09:39;;;;;;;1.85;1.40;;;;;;;11.73;100.00;97029.00;1222484;75;2935914;-75
2023/10/24 06:12:12;;;;;;;2.75;1.50;;;;;;;11.83;100.00;97026.00;1220168;75;3114261;-77
2023/10/24 06:14:47;;;;;;;1.95;1.30;;;;;;;11.90;100.00;97029.00;1223755;75;2925453;-73
2023/10/24 06:17:20;;;;;;;1.60;1.10;;;;;;;11.94;100.00;97024.03;1223474;75;2926996;-73
2023/10/24 06:19:52;;;;;;;3.40;1.90;;;;;;;11.76;100.00;97023.75;1223201;75;2931359;-73
2023/10/24 06:22:25;;;;;;;3.00;1.40;;;;;;;11.86;100.00;97006.56;1223733;75;2920702;-72
2023/10/24 06:24:57;;;;;;;1.75;1.40;;;;;;;11.92;100.00;97028.53;1224582;75;2921543;-73
2023/10/24 06:27:30;;;;;;;4.00;1.40;;;;;;;11.88;100.00;97030.75;1223192;75;2928033;-73
2023/10/24 06:30:06;;;;;;;3.50;1.95;;;;;;;11.76;100.00;97023.75;1221497;75;2926339;-72
2023/10/24 06:32:39;;;;;;;4.45;1.55;;;;;;;11.88;100.00;97023.31;1216970;75;3009841;-76
2023/10/24 06:35:15;;;;;;;2.20;1.70;;;;;;;12.01;100.00;97024.78;1222776;75;2932669;-76
2023/10/24 06:37:49;;;;;;;2.25;1.35;;;;;;;12.04;100.00;97026.53;1222958;75;2932915;-73
2023/10/24 06:40:22;;;;;;;4.30;1.80;;;;;;;11.84;100.00;97033.00;1221522;75;2933409;-74
2023/10/24 06:42:55;;;;;;;4.80;1.80;;;;;;;11.99;100.00;97019.06;1222167;75;2923271;-78
2023/10/24 06:45:30;;;;;;;1.40;1.15;;;;;;;12.05;100.00;97019.78;1223874;75;2923762;-72
2023/10/24 06:48:03;;;;;;;2.45;1.20;;;;;;;12.06;100.00;97018.53;1223616;75;2934792;-72
2023/10/24 06:50:35;;;;;;;7.60;3.20;;;;;;;11.77;100.00;97017.78;1222344;75;2928002;-72
2023/10/24 06:53:08;;;;;;;3.95;2.65;;;;;;;11.85;100.00;97027.00;1186350;75;5680564;-72
2023/10/24 06:55:41;;;;;;;6.90;3.40;;;;;;;11.97;100.00;97007.81;1220418;75;3079883;-73
2023/10/24 06:58:14;;;;;;;4.90;2.60;;;;;;;12.20;100.00;97016.78;1223784;75;2926418;-73
2023/10/24 07:00:50;;;;;;;6.55;2.85;;;;;;;12.02;100.00;97013.28;1219378;75;3060190;-74
2023/10/24 07:03:23;;;;;;;12.05;4.65;;;;;;;11.75;100.00;97016.78;1222923;75;2933741;-72
2023/10/24 07:05:57;;;;;;;8.10;3.50;;;;;;;11.96;100.00;97020.06;1220376;75;3088241;-73
2023/10/24 07:08:29;;;;;;;6.50;3.40;;;;;;;11.90;100.00;97012.56;1222089;75;2953879;-76
2023/10/24 07:11:02;;;;;;;5.80;2.80;;;;;;;11.85;100.00;96999.56;1224106;75;2925042;-73
2023/10/24 07:13:37;;;;;;;7.05;3.30;;;;;;;11.86;100.00;96989.38;1222667;75;2868714;-71
2023/10/24 07:16:20;;;;;;;5.80;2.95;;;;;;;11.98;100.00;96968.94;1223328;75;2920334;-77
2023/10/24 07:18:52;;;;;;;3.30;2.00;;;;;;;12.23;100.00;96969.84;1209567;75;3910010;-73
2023/10/24 07:21:27;;;;;;;3.80;1.85;;;;;;;12.29;100.00;96967.84;1223702;75;2931372;-78
2023/10/24 07:24:00;;;;;;;4.95;2.30;;;;;;;12.34;100.00;96966.34;1224015;75;2923714;-73
2023/10/24 07:26:33;;;;;;;3.50;2.05;;;;;;;12.25;100.00;96959.13;1221358;75;3031983;-74
2023/10/24 07:29:06;;;;;;;3.95;2.20;;;;;;;12.16;100.00;96975.88;1223562;75;2926355;-75
2023/10/24 07:31:41;;;;;;;4.90;2.90;;;;;;;12.09;100.00;96970.91;1224184;75;2927406;-75
2023/10/24 07:34:14;;;;;;;3.80;2.40;;;;;;;12.26;100.00;96976.34;1223497;75;2919777;-75
2023/10/24 07:36:46;;;;;;;4.50;2.50;;;;;;;12.43;100.00;96968.78;1221974;75;3029038;-74
2023/10/24 07:39:19;;;;;;;3.45;2.00;;;;;;;12.53;100.00;96966.50;1223523;75;2921811;-73
2023/10/24 07:41:52;;;;;;;4.25;2.55;;;;;;;12.37;100.00;96948.88;1220397;75;3107742;-76
2023/10/24 07:44:24;;;;;;;9.20;3.85;;;;;;;12.24;100.00;96945.91;1224409;75;2940030;-75
2023/10/24 07:46:59;;;;;;;5.55;2.85;;;;;;;12.39;100.00;96945.59;1221857;75;2937077;-76
2023/10/24 07:49:32;;;;;;;5.50;2.35;;;;;;;12.59;100.00;96969.97;1224117;75;2926065;-74
2023/10/24 07:52:06;;;;;;;5.50;2.15;;;;;;;12.52;100.00;96981.50;1223863;75;2923177;-76
2023/10/24 07:54:39;;;;;;;8.00;2.95;;;;;;;12.39;100.00;96986.78;1222985;75;2933835;-73
2023/10/24 07:57:12;;;;;;;7.10;3.55;;;;;;;12.41;100.00;96984.28;1222677;75;2932955;-75
2023/10/24 07:59:44;;;;;;;6.00;3.15;;;;;;;12.53;100.00;96980.22;1223903;75;2927313;-76
2023/10/24 08:02:20;;;;;;;3.80;2.35;;;;;;;12.73;100.00;96976.41;1223056;75;2924797;-76
2023/10/24 08:04:52;;;;;;;5.20;3.00;;;;;;;12.81;100.00;96962.91;1224091;75;2936299;-76
2023/10/24 08:07:25;;;;;;;10.45;3.90;;;;;;;12.34;100.00;96960.84;1223753;75;2923546;-74
2023/10/24 08:09:58;;;;;;;5.55;3.20;;;;;;;12.83;100.00;96958.38;1224165;75;2924940;-72
2023/10/24 08:12:30;;;;;;;4.85;2.80;;;;;;;12.70;100.00;96977.41;1223175;75;2926967;-75
2023/10/24 08:15:03;;;;;;;4.55;2.40;;;;;;;12.99;100.00;96976.03;1224352;75;2920348;-73
2023/10/24 08:17:38;;;;;;;4.50;2.25;;;;;;;12.99;100.00;96990.50;1221468;75;3064932;-73
2023/10/24 08:20:13;;;;;;;3.70;2.20;;;;;;;12.82;100.00;96978.09;1199468;75;4832613;-75
2023/10/24 08:22:46;;;;;;;3.20;2.20;;;;;;;13.04;100.00;96974.50;1221268;75;3066053;-74
2023/10/24 08:25:19;;;;;;;5.10;3.10;;;;;;;12.84;100.00;96990.06;1223690;75;2933358;-75
2023/10/24 08:27:51;;;;;;;8.15;4.40;;;;;;;13.04;100.00;96985.50;1224152;75;2931138;-76
2023/10/24 08:30:28;;;;;;;5.85;3.85;;;;;;;12.96;100.00;96993.50;1219407;75;3111960;-76
2023/10/24 08:33:04;;;;;;;5.10;3.85;;;;;;;13.15;100.00;97007.41;1223603;75;2922936;-77
2023/10/24 08:35:36;;;;;;;7.10;4.20;;;;;;;13.03;100.00;97006.72;1222387;75;2960478;-74
2023/10/24 08:38:09;;;;;;;7.60;3.55;;;;;;;13.25;100.00;96988.59;1223314;75;2927400;-76
2023/10/24 08:40:42;;;;;;;5.40;3.70;;;;;;;13.14;100.00;96987.41;1222856;75;2926284;-75
2023/10/24 08:43:16;;;;;;;3.60;2.50;;;;;;;13.37;100.00;96965.28;1219813;75;2997302;-75
2023/10/24 08:45:50;;;;;;;4.20;2.75;;;;;;;13.45;100.00;96960.00;1222641;75;2930953;-74
2023/10/24 08:48:25;;;;;;;3.05;2.30;;;;;;;13.41;100.00;96952.78;1220819;75;3018423;-77
2023/10/24 08:50:58;;;;;;;5.80;3.30;;;;;;;12.92;100.00;96951.84;1221286;75;3019562;-73
2023/10/24 08:53:30;;;;;;;13.45;7.20;;;;;;;12.62;100.00;96936.00;1221177;75;3037493;-74
2023/10/24 08:56:06;;;;;;;22.30;9.75;;;;;;;12.64;100.00;96919.78;1223096;75;2929922;-74
2023/10/24 08:58:41;;;;;;;14.25;7.30;;;;;;;12.86;100.00;96918.16;1223319;75;2924959;-72
2023/10/24 09:01:14;;;;;;;11.60;6.10;;;;;;;12.93;100.00;96926.59;1219505;75;3081227;-74
2023/10/24 09:03:50;;;;;;;7.25;5.20;;;;;;;13.18;100.00;96915.69;1221554;75;3006795;-74
2023/10/24 09:06:23;;;;;;;5.95;3.95;;;;;;;13.43;100.00;96925.50;1224149;75;2934546;-75
2023/10/24 09:08:56;;;;;;;7.60;3.65;;;;;;;13.41;100.00;96925.28;1222909;75;2937348;-74
2023/10/24 09:11:28;;;;;;;4.00;2.75;;;;;;;13.67;100.00;96934.31;1223052;75;2927779;-71
2023/10/24 09:14:02;;;;;;;5.30;2.80;;;;;;;13.37;100.00;96946.06;1222728;75;2938490;-76
2023/10/24 09:16:35;;;;;;;4.05;2.75;;;;;;;13.51;100.00;96955.19;1224251;75;2923619;-77
2023/10/24 09:19:16;;;;;;;5.10;2.65;;;;;;;13.66;100.00;96966.56;1220669;75;3057424;-70
2023/10/24 09:21:48;;;;;;;7.70;3.35;;;;;;;13.45;100.00;96955.25;1206429;75;4064349;-72
2023/10/24 09:24:21;;;;;;;9.10;3.95;;;;;;;13.68;100.00;96936.53;1220557;75;2981353;-76
2023/10/24 09:26:54;;;;;;;8.30;3.55;;;;;;;13.46;100.00;96923.00;1219988;75;3081450;-76
2023/10/24 09:29:27;;;;;;;5.80;3.10;;;;;;;13.86;100.00;96902.13;1220303;75;3105068;-77
2023/10/24 09:32:00;;;;;;;4.25;2.30;;;;;;;13.95;100.00;96920.28;1223232;75;2939196;-74
2023/10/24 09:34:36;;;;;;;5.55;2.60;;;;;;;13.80;100.00;96926.91;1225603;75;2925878;-74
2023/10/24 09:37:10;;;;;;;6.10;2.35;;;;;;;13.87;100.00;96944.13;1224199;75;2926907;-73
2023/10/24 09:40:00;;;;;;;3.60;2.15;;;;;;;13.82;100.00;96929.16;1219757;75;3089752;-72
2023/10/24 09:42:35;;;;;;;5.95;3.90;;;;;;;13.52;100.00;96932.69;1222945;75;2926700;-74
2023/10/24 09:45:09;;;;;;;14.80;5.40;;;;;;;13.48;100.00;96929.47;1224581;75;2920829;-73
2023/10/24 09:47:43;;;;;;;7.15;4.35;;;;;;;13.54;100.00;96919.19;1224439;75;2924164;-73
2023/10/24 09:50:19;;;;;;;6.30;3.90;;;;;;;13.52;100.00;96912.72;1222970;75;2934521;-71
2023/10/24 09:52:54;;;;;;;10.75;5.75;;;;;;;13.73;100.00;96927.50;1224221;75;2924241;-75
2023/10/24 09:55:27;;;;;;;9.10;5.55;;;;;;;13.52;100.00;96938.19;1223858;75;2930151;-76
2023/10/24 09:58:01;;;;;;;6.80;4.30;;;;;;;13.67;100.00;96959.81;1222925;75;2931065;-71
2023/10/24 10:00:34;;;;;;;5.50;3.35;;;;;;;13.78;100.00;96965.22;1222953;75;2926879;-74
2023/10/24 10:03:07;;;;;;;4.95;2.90;;;;;;;14.00;100.00;96958.75;1222796;75;2926835;-75
2023/10/24 10:05:45;;;;;;;8.65;3.70;;;;;;;13.40;100.00;96953.28;1223633;75;2936460;-71
2023/10/24 10:08:20;;;;;;;7.10;3.95;;;;;;;13.33;100.00;96956.59;1223369;75;2929441;-72
2023/10/24 10:10:54;;;;;;;10.50;4.50;;;;;;;13.26;100.00;96948.88;1221318;75;3013988;-74
2023/10/24 10:13:32;;;;;;;7.80;3.95;;;;;;;13.45;100.00;96952.50;1224409;75;2922255;-74
2023/10/24 10:16:23;;;;;;;6.60;3.70;;;;;;;13.77;100.00;96958.22;1224103;75;2926750;-74
2023/10/24 10:19:40;;;;;;;9.45;4.15;;;;;;;13.43;100.00;96942.00;1221827;75;3037271;-70
2023/10/24 10:22:38;;;;;;;6.75;3.75;;;;;;;13.56;100.00;96954.41;1225146;75;2928084;-75
2023/10/24 10:25:53;;;;;;;7.75;4.45;;;;;;;13.63;100.00;96957.34;1224961;75;2927589;-73
2023/10/24 10:28:52;;;;;;;7.35;3.90;;;;;;;13.42;100.00;96967.25;1223592;75;2923256;-72
2023/10/24 10:31:58;;;;;;;6.75;3.40;;;;;;;13.80;100.00;96959.19;1224086;75;2930537;-71
2023/10/24 10:34:37;;;;;;;4.40;2.60;;;;;;;13.87;100.00;96944.88;1224262;75;2929522;-70
2023/10/24 10:37:10;;;;;;;7.65;3.90;;;;;;;13.41;100.00;96927.28;1223041;75;2931954;-75
2023/10/24 10:39:45;;;;;;;10.00;4.80;;;;;;;13.40;100.00;96934.06;1224142;75;2941924;-71
2023/10/24 10:42:51;;;;;;;7.90;3.80;;;;;;;13.88;100.00;96942.84;1210827;75;3932760;-75
2023/10/24 10:45:29;;;;;;;6.20;3.50;;;;;;;13.76;100.00;96934.00;1224227;75;2922548;-72
2023/10/24 10:48:04;;;;;;;4.20;2.80;;;;;;;14.00;100.00;96938.75;1224906;75;2926349;-75
2023/10/24 10:50:39;;;;;;;5.65;3.20;;;;;;;13.95;100.00;96939.53;1223760;75;2920994;-72
2023/10/24 10:53:41;;;;;;;4.65;2.35;;;;;;;13.99;100.00;96934.50;1223304;75;2929251;-74
2023/10/24 10:56:30;;;;;;;3.50;1.90;;;;;;;14.19;100.00;96925.78;1219470;75;3011674;-73
2023/10/24 10:59:41;;;;;;;3.05;1.90;;;;;;;14.00;100.00;96925.00;1224014;83;2930316;-76
2023/10/24 11:02:48;;;;;;;6.05;2.65;;;;;;;14.07;100.00;96919.66;1224619;75;2925406;-70
2023/10/24 11:05:52;;;;;;;3.85;2.05;;;;;;;14.35;100.00;96915.09;1223375;75;2924043;-73
2023/10/24 11:08:28;;;;;;;4.45;2.55;;;;;;;14.14;100.00;96904.56;1223624;75;2931426;-72
2023/10/24 11:11:02;;;;;;;4.45;2.30;;;;;;;13.95;100.00;96915.53;1222956;75;2926922;-72
2023/10/24 11:13:43;;;;;;;5.55;2.85;;;;;;;13.83;100.00;96911.41;1223894;75;2933685;-75
2023/10/24 11:16:17;;;;;;;6.10;3.30;;;;;;;13.99;100.00;96904.97;1223817;75;2923505;-77
2023/10/24 11:18:50;;;;;;;4.45;2.75;;;;;;;14.28;100.00;96891.63;1223807;75;2924337;-71
2023/10/24 11:21:23;;;;;;;5.80;2.60;;;;;;;14.52;100.00;96893.56;1224049;75;2926007;-75
2023/10/24 11:23:56;;;;;;;3.70;2.25;;;;;;;14.38;100.00;96890.03;1224325;75;2921502;-72
2023/10/24 11:26:29;;;;;;;10.00;6.40;;;;;;;14.20;100.00;96874.97;1223564;75;2927989;-75
2023/10/24 11:29:04;;;;;;;17.60;7.25;;;;;;;14.29;100.00;96887.63;1224003;75;2928632;-74
2023/10/24 11:31:38;;;;;;;9.70;5.35;;;;;;;14.49;100.00;96867.09;1224026;75;2928502;-76
2023/10/24 11:34:14;;;;;;;8.10;5.10;;;;;;;14.17;100.00;96864.25;1222563;75;2927162;-73
2023/10/24 11:36:48;;;;;;;7.70;4.10;;;;;;;14.31;100.00;96857.56;1223784;75;2926877;-76
2023/10/24 11:39:21;;;;;;;7.70;4.10;;;;;;;14.70;100.00;96856.31;1223150;75;2929687;-75
2023/10/24 11:41:53;;;;;;;4.70;3.65;;;;;;;15.04;100.00;96842.75;1223028;75;2926975;-73
2023/10/24 11:44:28;;;;;;;5.15;3.30;;;;;;;14.88;100.00;96833.47;1222639;75;2932037;-76